sensor_id;sensor_type;location;lat;lon;timestamp;P1;durP1;ratioP1;P2;durP2;ratioP2
47519;SDS011;33252;48.122;11.538;2024-01-11T00:00:39;43.20;;;14.93;;
47519;SDS011;33252;48.122;11.538;2024-01-11T00:03:04;42.05;;;14.40;;
47519;SDS011;33252;48.122;11.538;2024-01-11T00:05:30;41.33;;;14.27;;
47519;SDS011;33252;48.122;11.538;2024-01-11T00:07:55;47.22;;;16.70;;
47519;SDS011;33252;48.122;11.538;2024-01-11T00:10:22;47.47;;;15.40;;
47519;SDS011;33252;48.122;11.538;2024-01-11T00:12:48;45.33;;;15.15;;
47519;SDS011;33252;48.122;11.538;2024-01-11T00:15:13;46.55;;;15.68;;
47519;SDS011;33252;48.122;11.538;2024-01-11T00:17:39;46.45;;;15.90;;
47519;SDS011;33252;48.122;11.538;2024-01-11T00:20:05;43.05;;;15.05;;
47519;SDS011;33252;48.122;11.538;2024-01-11T00:22:31;45.65;;;15.75;;
47519;SDS011;33252;48.122;11.538;2024-01-11T00:24:57;48.92;;;15.10;;
47519;SDS011;33252;48.122;11.538;2024-01-11T00:27:22;44.10;;;14.18;;
47519;SDS011;33252;48.122;11.538;2024-01-11T00:29:48;40.28;;;15.27;;
47519;SDS011;33252;48.122;11.538;2024-01-11T00:32:14;45.80;;;17.35;;
47519;SDS011;33252;48.122;11.538;2024-01-11T00:34:39;45.78;;;15.45;;
47519;SDS011;33252;48.122;11.538;2024-01-11T00:37:05;52.25;;;15.40;;
47519;SDS011;33252;48.122;11.538;2024-01-11T00:39:30;47.78;;;14.77;;
47519;SDS011;33252;48.122;11.538;2024-01-11T00:41:56;43.70;;;15.55;;
47519;SDS011;33252;48.122;11.538;2024-01-11T00:44:22;39.03;;;13.85;;
47519;SDS011;33252;48.122;11.538;2024-01-11T00:46:47;31.38;;;13.73;;
47519;SDS011;33252;48.122;11.538;2024-01-11T00:49:13;41.15;;;12.48;;
47519;SDS011;33252;48.122;11.538;2024-01-11T00:51:38;45.17;;;13.68;;
47519;SDS011;33252;48.122;11.538;2024-01-11T00:54:04;36.17;;;11.40;;
47519;SDS011;33252;48.122;11.538;2024-01-11T00:56:30;38.35;;;12.82;;
47519;SDS011;33252;48.122;11.538;2024-01-11T00:58:55;39.70;;;12.13;;
47519;SDS011;33252;48.122;11.538;2024-01-11T01:01:21;32.33;;;10.57;;
47519;SDS011;33252;48.122;11.538;2024-01-11T01:03:46;47.22;;;13.52;;
47519;SDS011;33252;48.122;11.538;2024-01-11T01:06:12;36.83;;;12.80;;
47519;SDS011;33252;48.122;11.538;2024-01-11T01:08:37;39.75;;;12.52;;
47519;SDS011;33252;48.122;11.538;2024-01-11T01:11:03;44.75;;;14.10;;
47519;SDS011;33252;48.122;11.538;2024-01-11T01:13:29;40.58;;;14.70;;
47519;SDS011;33252;48.122;11.538;2024-01-11T01:15:54;47.95;;;14.10;;
47519;SDS011;33252;48.122;11.538;2024-01-11T01:18:20;45.13;;;14.27;;
47519;SDS011;33252;48.122;11.538;2024-01-11T01:20:45;48.55;;;14.80;;
47519;SDS011;33252;48.122;11.538;2024-01-11T01:23:11;44.08;;;15.70;;
47519;SDS011;33252;48.122;11.538;2024-01-11T01:25:36;44.63;;;14.90;;
47519;SDS011;33252;48.122;11.538;2024-01-11T01:28:02;41.00;;;14.73;;
47519;SDS011;33252;48.122;11.538;2024-01-11T01:30:28;46.33;;;14.27;;
47519;SDS011;33252;48.122;11.538;2024-01-11T01:32:53;40.90;;;14.80;;
47519;SDS011;33252;48.122;11.538;2024-01-11T01:35:19;42.08;;;12.65;;
47519;SDS011;33252;48.122;11.538;2024-01-11T01:37:44;44.58;;;14.35;;
47519;SDS011;33252;48.122;11.538;2024-01-11T01:40:11;55.35;;;15.70;;
47519;SDS011;33252;48.122;11.538;2024-01-11T01:42:43;40.58;;;14.45;;
47519;SDS011;33252;48.122;11.538;2024-01-11T01:45:10;37.60;;;13.20;;
47519;SDS011;33252;48.122;11.538;2024-01-11T01:47:36;37.42;;;13.45;;
47519;SDS011;33252;48.122;11.538;2024-01-11T01:50:03;46.92;;;15.68;;
47519;SDS011;33252;48.122;11.538;2024-01-11T01:52:30;28.67;;;12.05;;
47519;SDS011;33252;48.122;11.538;2024-01-11T01:54:57;44.85;;;13.27;;
47519;SDS011;33252;48.122;11.538;2024-01-11T01:57:24;44.67;;;13.82;;
47519;SDS011;33252;48.122;11.538;2024-01-11T01:59:50;41.97;;;14.07;;
47519;SDS011;33252;48.122;11.538;2024-01-11T02:02:17;38.20;;;13.75;;
47519;SDS011;33252;48.122;11.538;2024-01-11T02:04:44;41.03;;;15.05;;
47519;SDS011;33252;48.122;11.538;2024-01-11T02:07:10;43.08;;;14.02;;
47519;SDS011;33252;48.122;11.538;2024-01-11T02:09:36;36.10;;;13.18;;
47519;SDS011;33252;48.122;11.538;2024-01-11T02:12:02;34.03;;;11.80;;
47519;SDS011;33252;48.122;11.538;2024-01-11T02:14:30;33.22;;;12.65;;
47519;SDS011;33252;48.122;11.538;2024-01-11T02:16:56;42.67;;;13.43;;
47519;SDS011;33252;48.122;11.538;2024-01-11T02:19:21;41.15;;;12.65;;
47519;SDS011;33252;48.122;11.538;2024-01-11T02:21:48;40.53;;;13.35;;
47519;SDS011;33252;48.122;11.538;2024-01-11T02:24:17;42.03;;;15.13;;
47519;SDS011;33252;48.122;11.538;2024-01-11T02:26:57;35.15;;;11.00;;
47519;SDS011;33252;48.122;11.538;2024-01-11T02:29:27;36.58;;;12.02;;
47519;SDS011;33252;48.122;11.538;2024-01-11T02:31:53;35.80;;;12.93;;
47519;SDS011;33252;48.122;11.538;2024-01-11T02:34:19;45.85;;;14.00;;
47519;SDS011;33252;48.122;11.538;2024-01-11T02:36:45;34.83;;;12.05;;
47519;SDS011;33252;48.122;11.538;2024-01-11T02:39:11;29.15;;;10.73;;
47519;SDS011;33252;48.122;11.538;2024-01-11T02:41:40;32.42;;;11.73;;
47519;SDS011;33252;48.122;11.538;2024-01-11T02:44:07;39.25;;;11.98;;
47519;SDS011;33252;48.122;11.538;2024-01-11T02:46:32;38.03;;;12.02;;
47519;SDS011;33252;48.122;11.538;2024-01-11T02:48:58;37.88;;;11.88;;
47519;SDS011;33252;48.122;11.538;2024-01-11T02:51:23;33.00;;;11.77;;
47519;SDS011;33252;48.122;11.538;2024-01-11T02:53:49;32.25;;;11.23;;
47519;SDS011;33252;48.122;11.538;2024-01-11T02:56:14;33.38;;;11.68;;
47519;SDS011;33252;48.122;11.538;2024-01-11T02:58:40;39.15;;;12.88;;
47519;SDS011;33252;48.122;11.538;2024-01-11T03:01:06;32.55;;;12.30;;
47519;SDS011;33252;48.122;11.538;2024-01-11T03:03:31;41.05;;;10.73;;
47519;SDS011;33252;48.122;11.538;2024-01-11T03:05:57;37.78;;;12.85;;
47519;SDS011;33252;48.122;11.538;2024-01-11T03:08:22;27.92;;;10.13;;
47519;SDS011;33252;48.122;11.538;2024-01-11T03:10:48;35.50;;;12.35;;
47519;SDS011;33252;48.122;11.538;2024-01-11T03:13:13;37.60;;;11.85;;
47519;SDS011;33252;48.122;11.538;2024-01-11T03:15:39;31.65;;;11.45;;
47519;SDS011;33252;48.122;11.538;2024-01-11T03:18:04;43.60;;;12.57;;
47519;SDS011;33252;48.122;11.538;2024-01-11T03:20:30;43.10;;;13.48;;
47519;SDS011;33252;48.122;11.538;2024-01-11T03:22:55;34.83;;;11.27;;
47519;SDS011;33252;48.122;11.538;2024-01-11T03:25:21;37.92;;;12.07;;
47519;SDS011;33252;48.122;11.538;2024-01-11T03:27:47;29.92;;;10.45;;
47519;SDS011;33252;48.122;11.538;2024-01-11T03:30:12;25.73;;;9.75;;
47519;SDS011;33252;48.122;11.538;2024-01-11T03:32:38;28.88;;;9.95;;
47519;SDS011;33252;48.122;11.538;2024-01-11T03:35:09;32.33;;;11.60;;
47519;SDS011;33252;48.122;11.538;2024-01-11T03:37:35;37.58;;;11.05;;
47519;SDS011;33252;48.122;11.538;2024-01-11T03:40:01;35.72;;;12.48;;
47519;SDS011;33252;48.122;11.538;2024-01-11T03:42:28;31.67;;;12.25;;
47519;SDS011;33252;48.122;11.538;2024-01-11T03:44:54;30.17;;;11.63;;
47519;SDS011;33252;48.122;11.538;2024-01-11T03:47:19;33.22;;;12.73;;
47519;SDS011;33252;48.122;11.538;2024-01-11T03:49:45;38.25;;;12.07;;
47519;SDS011;33252;48.122;11.538;2024-01-11T03:52:10;34.35;;;11.82;;
47519;SDS011;33252;48.122;11.538;2024-01-11T03:54:36;32.58;;;12.48;;
47519;SDS011;33252;48.122;11.538;2024-01-11T03:57:01;37.75;;;13.02;;
47519;SDS011;33252;48.122;11.538;2024-01-11T03:59:27;37.88;;;13.63;;
47519;SDS011;33252;48.122;11.538;2024-01-11T04:01:53;37.92;;;13.10;;
47519;SDS011;33252;48.122;11.538;2024-01-11T04:04:19;43.50;;;13.40;;
47519;SDS011;33252;48.122;11.538;2024-01-11T04:06:44;37.33;;;12.55;;
47519;SDS011;33252;48.122;11.538;2024-01-11T04:09:10;40.92;;;12.10;;
47519;SDS011;33252;48.122;11.538;2024-01-11T04:11:36;36.15;;;12.30;;
47519;SDS011;33252;48.122;11.538;2024-01-11T04:14:01;36.35;;;12.75;;
47519;SDS011;33252;48.122;11.538;2024-01-11T04:16:27;42.25;;;14.05;;
47519;SDS011;33252;48.122;11.538;2024-01-11T04:18:52;32.00;;;11.18;;
47519;SDS011;33252;48.122;11.538;2024-01-11T04:21:24;34.28;;;11.32;;
47519;SDS011;33252;48.122;11.538;2024-01-11T04:23:54;32.40;;;11.27;;
47519;SDS011;33252;48.122;11.538;2024-01-11T04:26:20;40.53;;;12.57;;
47519;SDS011;33252;48.122;11.538;2024-01-11T04:28:45;40.15;;;12.05;;
47519;SDS011;33252;48.122;11.538;2024-01-11T04:31:12;30.30;;;10.68;;
47519;SDS011;33252;48.122;11.538;2024-01-11T04:33:45;34.65;;;12.52;;
47519;SDS011;33252;48.122;11.538;2024-01-11T04:36:11;36.03;;;11.23;;
47519;SDS011;33252;48.122;11.538;2024-01-11T04:38:38;42.97;;;12.80;;
47519;SDS011;33252;48.122;11.538;2024-01-11T04:41:11;34.65;;;11.60;;
47519;SDS011;33252;48.122;11.538;2024-01-11T04:43:40;37.22;;;12.10;;
47519;SDS011;33252;48.122;11.538;2024-01-11T04:46:14;37.10;;;10.40;;
47519;SDS011;33252;48.122;11.538;2024-01-11T04:48:40;37.58;;;11.88;;
47519;SDS011;33252;48.122;11.538;2024-01-11T04:51:06;32.38;;;11.65;;
47519;SDS011;33252;48.122;11.538;2024-01-11T04:53:31;37.55;;;11.73;;
47519;SDS011;33252;48.122;11.538;2024-01-11T04:55:57;30.13;;;11.32;;
47519;SDS011;33252;48.122;11.538;2024-01-11T04:58:23;41.67;;;13.60;;
47519;SDS011;33252;48.122;11.538;2024-01-11T05:00:49;35.38;;;10.90;;
47519;SDS011;33252;48.122;11.538;2024-01-11T05:03:14;35.47;;;11.65;;
47519;SDS011;33252;48.122;11.538;2024-01-11T05:05:40;39.15;;;13.15;;
47519;SDS011;33252;48.122;11.538;2024-01-11T05:08:05;30.70;;;12.88;;
47519;SDS011;33252;48.122;11.538;2024-01-11T05:10:31;33.67;;;11.60;;
47519;SDS011;33252;48.122;11.538;2024-01-11T05:12:56;27.80;;;10.32;;
47519;SDS011;33252;48.122;11.538;2024-01-11T05:15:22;33.00;;;11.98;;
47519;SDS011;33252;48.122;11.538;2024-01-11T05:17:47;32.25;;;13.32;;
47519;SDS011;33252;48.122;11.538;2024-01-11T05:20:13;35.35;;;13.48;;
47519;SDS011;33252;48.122;11.538;2024-01-11T05:22:39;34.55;;;11.55;;
47519;SDS011;33252;48.122;11.538;2024-01-11T05:25:05;34.05;;;13.77;;
47519;SDS011;33252;48.122;11.538;2024-01-11T05:27:30;38.60;;;13.73;;
47519;SDS011;33252;48.122;11.538;2024-01-11T05:29:56;36.65;;;12.57;;
47519;SDS011;33252;48.122;11.538;2024-01-11T05:32:21;36.20;;;12.38;;
47519;SDS011;33252;48.122;11.538;2024-01-11T05:34:47;40.50;;;12.57;;
47519;SDS011;33252;48.122;11.538;2024-01-11T05:37:13;33.72;;;12.73;;
47519;SDS011;33252;48.122;11.538;2024-01-11T05:39:38;33.08;;;12.52;;
47519;SDS011;33252;48.122;11.538;2024-01-11T05:42:04;38.17;;;12.98;;
47519;SDS011;33252;48.122;11.538;2024-01-11T05:44:29;36.03;;;13.40;;
47519;SDS011;33252;48.122;11.538;2024-01-11T05:46:55;35.05;;;12.77;;
47519;SDS011;33252;48.122;11.538;2024-01-11T05:49:20;34.05;;;11.93;;
47519;SDS011;33252;48.122;11.538;2024-01-11T05:51:46;34.38;;;12.07;;
47519;SDS011;33252;48.122;11.538;2024-01-11T05:54:11;35.88;;;11.98;;
47519;SDS011;33252;48.122;11.538;2024-01-11T05:56:37;33.30;;;11.35;;
47519;SDS011;33252;48.122;11.538;2024-01-11T05:59:02;29.50;;;12.63;;
47519;SDS011;33252;48.122;11.538;2024-01-11T06:01:28;29.20;;;12.35;;
47519;SDS011;33252;48.122;11.538;2024-01-11T06:03:53;36.00;;;13.15;;
47519;SDS011;33252;48.122;11.538;2024-01-11T06:06:20;32.13;;;12.90;;
47519;SDS011;33252;48.122;11.538;2024-01-11T06:08:45;28.23;;;11.40;;
47519;SDS011;33252;48.122;11.538;2024-01-11T06:11:11;37.97;;;12.43;;
47519;SDS011;33252;48.122;11.538;2024-01-11T06:13:36;32.35;;;13.32;;
47519;SDS011;33252;48.122;11.538;2024-01-11T06:16:04;36.47;;;12.13;;
47519;SDS011;33252;48.122;11.538;2024-01-11T06:18:30;30.17;;;11.40;;
47519;SDS011;33252;48.122;11.538;2024-01-11T06:20:56;29.83;;;11.23;;
47519;SDS011;33252;48.122;11.538;2024-01-11T06:23:22;34.55;;;14.00;;
47519;SDS011;33252;48.122;11.538;2024-01-11T06:25:49;40.60;;;13.57;;
47519;SDS011;33252;48.122;11.538;2024-01-11T06:28:15;31.00;;;12.85;;
47519;SDS011;33252;48.122;11.538;2024-01-11T06:30:40;32.95;;;13.30;;
47519;SDS011;33252;48.122;11.538;2024-01-11T06:33:06;31.75;;;12.00;;
47519;SDS011;33252;48.122;11.538;2024-01-11T06:35:31;40.20;;;13.30;;
47519;SDS011;33252;48.122;11.538;2024-01-11T06:37:57;30.55;;;13.00;;
47519;SDS011;33252;48.122;11.538;2024-01-11T06:40:22;29.08;;;12.13;;
47519;SDS011;33252;48.122;11.538;2024-01-11T06:42:49;36.70;;;13.27;;
47519;SDS011;33252;48.122;11.538;2024-01-11T06:45:14;45.60;;;12.70;;
47519;SDS011;33252;48.122;11.538;2024-01-11T06:47:40;30.33;;;12.82;;
47519;SDS011;33252;48.122;11.538;2024-01-11T06:50:06;34.00;;;13.07;;
47519;SDS011;33252;48.122;11.538;2024-01-11T06:52:33;30.20;;;12.55;;
47519;SDS011;33252;48.122;11.538;2024-01-11T06:54:58;31.58;;;12.13;;
47519;SDS011;33252;48.122;11.538;2024-01-11T06:57:25;32.65;;;12.40;;
47519;SDS011;33252;48.122;11.538;2024-01-11T06:59:51;29.58;;;11.45;;
47519;SDS011;33252;48.122;11.538;2024-01-11T07:02:16;31.13;;;12.23;;
47519;SDS011;33252;48.122;11.538;2024-01-11T07:04:45;28.92;;;10.75;;
47519;SDS011;33252;48.122;11.538;2024-01-11T07:07:11;32.28;;;12.07;;
47519;SDS011;33252;48.122;11.538;2024-01-11T07:09:36;27.20;;;10.95;;
47519;SDS011;33252;48.122;11.538;2024-01-11T07:12:02;29.40;;;10.48;;
47519;SDS011;33252;48.122;11.538;2024-01-11T07:14:27;26.35;;;10.18;;
47519;SDS011;33252;48.122;11.538;2024-01-11T07:16:54;31.30;;;11.45;;
47519;SDS011;33252;48.122;11.538;2024-01-11T07:19:20;27.60;;;10.90;;
47519;SDS011;33252;48.122;11.538;2024-01-11T07:21:45;28.40;;;10.20;;
47519;SDS011;33252;48.122;11.538;2024-01-11T07:24:11;25.65;;;9.57;;
47519;SDS011;33252;48.122;11.538;2024-01-11T07:26:36;29.45;;;12.15;;
47519;SDS011;33252;48.122;11.538;2024-01-11T07:29:02;27.35;;;11.38;;
47519;SDS011;33252;48.122;11.538;2024-01-11T07:31:27;28.70;;;11.15;;
47519;SDS011;33252;48.122;11.538;2024-01-11T07:33:54;29.52;;;10.95;;
47519;SDS011;33252;48.122;11.538;2024-01-11T07:36:19;27.65;;;10.40;;
47519;SDS011;33252;48.122;11.538;2024-01-11T07:38:45;36.45;;;11.63;;
47519;SDS011;33252;48.122;11.538;2024-01-11T07:41:11;31.45;;;10.55;;
47519;SDS011;33252;48.122;11.538;2024-01-11T07:43:36;26.27;;;9.82;;
47519;SDS011;33252;48.122;11.538;2024-01-11T07:46:02;31.17;;;11.82;;
47519;SDS011;33252;48.122;11.538;2024-01-11T07:48:28;27.73;;;10.05;;
47519;SDS011;33252;48.122;11.538;2024-01-11T07:50:54;29.42;;;12.27;;
47519;SDS011;33252;48.122;11.538;2024-01-11T07:53:19;27.42;;;11.20;;
47519;SDS011;33252;48.122;11.538;2024-01-11T07:55:45;31.73;;;12.27;;
47519;SDS011;33252;48.122;11.538;2024-01-11T07:58:12;32.72;;;12.43;;
47519;SDS011;33252;48.122;11.538;2024-01-11T08:00:40;38.25;;;13.85;;
47519;SDS011;33252;48.122;11.538;2024-01-11T08:03:05;32.25;;;12.13;;
47519;SDS011;33252;48.122;11.538;2024-01-11T08:05:31;35.20;;;12.48;;
47519;SDS011;33252;48.122;11.538;2024-01-11T08:07:56;30.38;;;11.30;;
47519;SDS011;33252;48.122;11.538;2024-01-11T08:10:22;31.20;;;12.70;;
47519;SDS011;33252;48.122;11.538;2024-01-11T08:12:47;34.15;;;11.55;;
47519;SDS011;33252;48.122;11.538;2024-01-11T08:15:13;36.58;;;13.60;;
47519;SDS011;33252;48.122;11.538;2024-01-11T08:17:39;34.60;;;13.45;;
47519;SDS011;33252;48.122;11.538;2024-01-11T08:20:09;35.67;;;12.00;;
47519;SDS011;33252;48.122;11.538;2024-01-11T08:22:36;31.67;;;12.75;;
47519;SDS011;33252;48.122;11.538;2024-01-11T08:25:05;38.63;;;13.10;;
47519;SDS011;33252;48.122;11.538;2024-01-11T08:27:31;31.15;;;11.80;;
47519;SDS011;33252;48.122;11.538;2024-01-11T08:29:57;38.65;;;14.65;;
47519;SDS011;33252;48.122;11.538;2024-01-11T08:32:23;36.58;;;14.35;;
47519;SDS011;33252;48.122;11.538;2024-01-11T08:34:48;40.40;;;13.90;;
47519;SDS011;33252;48.122;11.538;2024-01-11T08:37:14;41.25;;;13.45;;
47519;SDS011;33252;48.122;11.538;2024-01-11T08:39:39;34.20;;;12.25;;
47519;SDS011;33252;48.122;11.538;2024-01-11T08:42:05;37.90;;;13.82;;
47519;SDS011;33252;48.122;11.538;2024-01-11T08:44:31;37.17;;;12.98;;
47519;SDS011;33252;48.122;11.538;2024-01-11T08:46:57;34.92;;;14.88;;
47519;SDS011;33252;48.122;11.538;2024-01-11T08:49:23;40.75;;;13.30;;
47519;SDS011;33252;48.122;11.538;2024-01-11T08:51:49;48.80;;;16.52;;
47519;SDS011;33252;48.122;11.538;2024-01-11T08:54:15;42.40;;;16.42;;
47519;SDS011;33252;48.122;11.538;2024-01-11T08:56:41;37.55;;;14.30;;
47519;SDS011;33252;48.122;11.538;2024-01-11T08:59:07;40.35;;;14.48;;
47519;SDS011;33252;48.122;11.538;2024-01-11T09:01:34;37.58;;;14.63;;
47519;SDS011;33252;48.122;11.538;2024-01-11T09:04:00;39.65;;;14.55;;
47519;SDS011;33252;48.122;11.538;2024-01-11T09:06:26;44.80;;;14.48;;
47519;SDS011;33252;48.122;11.538;2024-01-11T09:08:52;36.70;;;15.18;;
47519;SDS011;33252;48.122;11.538;2024-01-11T09:11:18;35.75;;;13.70;;
47519;SDS011;33252;48.122;11.538;2024-01-11T09:13:43;40.53;;;15.35;;
47519;SDS011;33252;48.122;11.538;2024-01-11T09:16:09;34.97;;;13.43;;
47519;SDS011;33252;48.122;11.538;2024-01-11T09:18:38;40.30;;;13.85;;
47519;SDS011;33252;48.122;11.538;2024-01-11T09:21:04;35.15;;;13.70;;
47519;SDS011;33252;48.122;11.538;2024-01-11T09:23:29;42.25;;;18.67;;
47519;SDS011;33252;48.122;11.538;2024-01-11T09:25:55;46.45;;;16.45;;
47519;SDS011;33252;48.122;11.538;2024-01-11T09:28:20;40.38;;;15.43;;
47519;SDS011;33252;48.122;11.538;2024-01-11T09:30:46;43.75;;;16.75;;
47519;SDS011;33252;48.122;11.538;2024-01-11T09:33:11;56.00;;;19.85;;
47519;SDS011;33252;48.122;11.538;2024-01-11T09:35:37;55.85;;;20.05;;
47519;SDS011;33252;48.122;11.538;2024-01-11T09:38:03;64.88;;;22.55;;
47519;SDS011;33252;48.122;11.538;2024-01-11T09:40:28;60.17;;;21.30;;
47519;SDS011;33252;48.122;11.538;2024-01-11T09:42:54;51.80;;;19.70;;
47519;SDS011;33252;48.122;11.538;2024-01-11T09:45:20;59.38;;;20.77;;
47519;SDS011;33252;48.122;11.538;2024-01-11T09:47:46;54.20;;;20.88;;
47519;SDS011;33252;48.122;11.538;2024-01-11T09:50:13;58.33;;;20.75;;
47519;SDS011;33252;48.122;11.538;2024-01-11T09:52:46;59.70;;;19.52;;
47519;SDS011;33252;48.122;11.538;2024-01-11T09:55:18;58.33;;;22.67;;
47519;SDS011;33252;48.122;11.538;2024-01-11T09:57:45;52.72;;;20.67;;
47519;SDS011;33252;48.122;11.538;2024-01-11T10:00:13;61.88;;;22.63;;
47519;SDS011;33252;48.122;11.538;2024-01-11T10:02:41;51.88;;;19.95;;
47519;SDS011;33252;48.122;11.538;2024-01-11T10:05:07;63.42;;;22.50;;
47519;SDS011;33252;48.122;11.538;2024-01-11T10:07:32;67.35;;;22.40;;
47519;SDS011;33252;48.122;11.538;2024-01-11T10:09:59;58.30;;;21.88;;
47519;SDS011;33252;48.122;11.538;2024-01-11T10:12:25;61.38;;;20.08;;
47519;SDS011;33252;48.122;11.538;2024-01-11T10:14:52;57.05;;;21.25;;
47519;SDS011;33252;48.122;11.538;2024-01-11T10:17:18;58.55;;;20.15;;
47519;SDS011;33252;48.122;11.538;2024-01-11T10:19:44;56.20;;;21.23;;
47519;SDS011;33252;48.122;11.538;2024-01-11T10:22:09;56.25;;;20.27;;
47519;SDS011;33252;48.122;11.538;2024-01-11T10:24:41;62.65;;;21.15;;
47519;SDS011;33252;48.122;11.538;2024-01-11T10:27:08;54.65;;;20.38;;
47519;SDS011;33252;48.122;11.538;2024-01-11T10:29:34;57.45;;;22.50;;
47519;SDS011;33252;48.122;11.538;2024-01-11T10:32:01;62.92;;;21.52;;
47519;SDS011;33252;48.122;11.538;2024-01-11T10:34:29;54.78;;;20.63;;
47519;SDS011;33252;48.122;11.538;2024-01-11T10:36:54;63.50;;;21.20;;
47519;SDS011;33252;48.122;11.538;2024-01-11T10:39:23;62.63;;;21.52;;
47519;SDS011;33252;48.122;11.538;2024-01-11T10:41:51;54.88;;;20.42;;
47519;SDS011;33252;48.122;11.538;2024-01-11T10:44:21;66.32;;;21.58;;
47519;SDS011;33252;48.122;11.538;2024-01-11T10:46:48;65.35;;;24.48;;
47519;SDS011;33252;48.122;11.538;2024-01-11T10:49:16;54.60;;;21.00;;
47519;SDS011;33252;48.122;11.538;2024-01-11T10:51:43;60.28;;;20.17;;
47519;SDS011;33252;48.122;11.538;2024-01-11T10:54:14;61.00;;;21.85;;
47519;SDS011;33252;48.122;11.538;2024-01-11T10:56:40;64.90;;;23.40;;
47519;SDS011;33252;48.122;11.538;2024-01-11T10:59:09;62.75;;;24.73;;
47519;SDS011;33252;48.122;11.538;2024-01-11T11:01:37;60.60;;;21.75;;
47519;SDS011;33252;48.122;11.538;2024-01-11T11:04:04;60.50;;;21.30;;
47519;SDS011;33252;48.122;11.538;2024-01-11T11:06:32;64.25;;;21.90;;
47519;SDS011;33252;48.122;11.538;2024-01-11T11:09:00;58.55;;;21.63;;
47519;SDS011;33252;48.122;11.538;2024-01-11T11:11:25;60.13;;;21.20;;
47519;SDS011;33252;48.122;11.538;2024-01-11T11:13:54;48.88;;;17.50;;
47519;SDS011;33252;48.122;11.538;2024-01-11T11:16:20;61.42;;;22.17;;
47519;SDS011;33252;48.122;11.538;2024-01-11T11:18:46;62.42;;;21.23;;
47519;SDS011;33252;48.122;11.538;2024-01-11T11:21:11;61.67;;;22.88;;
47519;SDS011;33252;48.122;11.538;2024-01-11T11:23:37;56.10;;;21.40;;
47519;SDS011;33252;48.122;11.538;2024-01-11T11:26:05;57.55;;;20.27;;
47519;SDS011;33252;48.122;11.538;2024-01-11T11:28:32;64.07;;;21.80;;
47519;SDS011;33252;48.122;11.538;2024-01-11T11:30:59;61.20;;;20.40;;
47519;SDS011;33252;48.122;11.538;2024-01-11T11:33:27;62.35;;;21.40;;
47519;SDS011;33252;48.122;11.538;2024-01-11T11:35:57;72.70;;;23.50;;
47519;SDS011;33252;48.122;11.538;2024-01-11T11:38:24;65.65;;;23.42;;
47519;SDS011;33252;48.122;11.538;2024-01-11T11:40:56;67.82;;;22.42;;
47519;SDS011;33252;48.122;11.538;2024-01-11T11:43:23;63.67;;;24.75;;
47519;SDS011;33252;48.122;11.538;2024-01-11T11:45:50;63.50;;;23.45;;
47519;SDS011;33252;48.122;11.538;2024-01-11T11:51:01;57.38;;;21.88;;
47519;SDS011;33252;48.122;11.538;2024-01-11T11:53:29;67.55;;;22.92;;
47519;SDS011;33252;48.122;11.538;2024-01-11T11:55:59;55.22;;;21.15;;
47519;SDS011;33252;48.122;11.538;2024-01-11T11:58:26;64.05;;;23.23;;
47519;SDS011;33252;48.122;11.538;2024-01-11T12:00:55;66.35;;;23.25;;
47519;SDS011;33252;48.122;11.538;2024-01-11T12:03:28;57.17;;;23.50;;
47519;SDS011;33252;48.122;11.538;2024-01-11T12:05:55;62.70;;;20.40;;
47519;SDS011;33252;48.122;11.538;2024-01-11T12:08:21;59.72;;;20.77;;
47519;SDS011;33252;48.122;11.538;2024-01-11T12:10:47;61.53;;;22.00;;
47519;SDS011;33252;48.122;11.538;2024-01-11T12:13:13;62.60;;;21.88;;
47519;SDS011;33252;48.122;11.538;2024-01-11T12:15:39;59.28;;;22.58;;
47519;SDS011;33252;48.122;11.538;2024-01-11T12:18:06;55.80;;;22.27;;
47519;SDS011;33252;48.122;11.538;2024-01-11T12:20:32;55.17;;;19.60;;
47519;SDS011;33252;48.122;11.538;2024-01-11T12:22:58;57.20;;;21.83;;
47519;SDS011;33252;48.122;11.538;2024-01-11T12:25:24;68.00;;;22.55;;
47519;SDS011;33252;48.122;11.538;2024-01-11T12:27:50;65.50;;;22.00;;
47519;SDS011;33252;48.122;11.538;2024-01-11T12:30:16;61.90;;;22.50;;
47519;SDS011;33252;48.122;11.538;2024-01-11T12:32:43;60.00;;;21.83;;
47519;SDS011;33252;48.122;11.538;2024-01-11T12:35:08;54.72;;;19.60;;
47519;SDS011;33252;48.122;11.538;2024-01-11T12:37:35;57.53;;;20.67;;
47519;SDS011;33252;48.122;11.538;2024-01-11T12:40:00;53.30;;;21.70;;
47519;SDS011;33252;48.122;11.538;2024-01-11T12:42:26;52.40;;;19.88;;
47519;SDS011;33252;48.122;11.538;2024-01-11T12:44:52;60.70;;;20.02;;
47519;SDS011;33252;48.122;11.538;2024-01-11T12:47:18;48.63;;;17.27;;
47519;SDS011;33252;48.122;11.538;2024-01-11T12:49:44;51.78;;;19.65;;
47519;SDS011;33252;48.122;11.538;2024-01-11T12:52:16;50.92;;;20.17;;
47519;SDS011;33252;48.122;11.538;2024-01-11T12:54:43;56.72;;;19.23;;
47519;SDS011;33252;48.122;11.538;2024-01-11T12:57:11;53.13;;;21.27;;
47519;SDS011;33252;48.122;11.538;2024-01-11T12:59:37;53.78;;;19.65;;
47519;SDS011;33252;48.122;11.538;2024-01-11T13:02:04;55.10;;;20.65;;
47519;SDS011;33252;48.122;11.538;2024-01-11T13:04:31;61.50;;;23.45;;
47519;SDS011;33252;48.122;11.538;2024-01-11T13:06:56;56.45;;;21.15;;
47519;SDS011;33252;48.122;11.538;2024-01-11T13:09:22;56.88;;;22.02;;
47519;SDS011;33252;48.122;11.538;2024-01-11T13:11:48;55.85;;;21.75;;
47519;SDS011;33252;48.122;11.538;2024-01-11T13:14:14;48.38;;;20.05;;
47519;SDS011;33252;48.122;11.538;2024-01-11T13:16:43;53.40;;;21.98;;
47519;SDS011;33252;48.122;11.538;2024-01-11T13:19:10;58.40;;;21.33;;
47519;SDS011;33252;48.122;11.538;2024-01-11T13:21:36;49.35;;;19.63;;
47519;SDS011;33252;48.122;11.538;2024-01-11T13:24:03;59.25;;;22.88;;
47519;SDS011;33252;48.122;11.538;2024-01-11T13:26:28;56.78;;;22.90;;
47519;SDS011;33252;48.122;11.538;2024-01-11T13:28:54;60.83;;;22.70;;
47519;SDS011;33252;48.122;11.538;2024-01-11T13:31:20;67.88;;;22.80;;
47519;SDS011;33252;48.122;11.538;2024-01-11T13:33:46;65.32;;;25.02;;
47519;SDS011;33252;48.122;11.538;2024-01-11T13:36:11;64.03;;;22.92;;
47519;SDS011;33252;48.122;11.538;2024-01-11T13:38:37;62.40;;;23.33;;
47519;SDS011;33252;48.122;11.538;2024-01-11T13:41:03;61.25;;;23.48;;
47519;SDS011;33252;48.122;11.538;2024-01-11T13:43:30;63.83;;;22.40;;
47519;SDS011;33252;48.122;11.538;2024-01-11T13:45:55;58.25;;;25.20;;
47519;SDS011;33252;48.122;11.538;2024-01-11T13:48:21;53.72;;;22.50;;
47519;SDS011;33252;48.122;11.538;2024-01-11T13:50:47;64.55;;;23.30;;
47519;SDS011;33252;48.122;11.538;2024-01-11T13:53:12;66.60;;;24.15;;
47519;SDS011;33252;48.122;11.538;2024-01-11T13:55:38;58.72;;;22.25;;
47519;SDS011;33252;48.122;11.538;2024-01-11T13:58:03;55.13;;;21.20;;
47519;SDS011;33252;48.122;11.538;2024-01-11T14:00:29;66.00;;;24.67;;
47519;SDS011;33252;48.122;11.538;2024-01-11T14:02:55;53.72;;;20.42;;
47519;SDS011;33252;48.122;11.538;2024-01-11T14:05:20;53.75;;;22.05;;